Eden, New York
Current Conditions -  °F | °C
As of 4:53 AM on Thursday 27 Nov 2014 (Local Time) from KDKK Reporting Station
Overcast Overcast  
Wind Chill: 21°   Ceiling: 5500
Heat Index: 29°   Visibility: 10mi
Dew Point: 25°   Wind: 8mph
Humidity: 85%   Direction: 70°ENE
Pressure: 30.04"   Gusts: NA
Location:  42.65°N, 78.9°W
Report Text: KDKK 270953Z AUTO 07007KT 10SM OVC055 M02/M04 A3004 RMK AO2 SLP179 T10171039
Loading
Personal Weather Stations






























Interactive Weather Map New forecast layout! Learn more

10-Day Weather Forecast

Advertisements
Track Severe Weather on mobile